createdAt,value
2018-04-18T00:00:44.244Z,4.83
2018-04-18T00:03:11.864Z,5.17
2018-04-18T00:05:39.395Z,4.60
2018-04-18T00:08:07.676Z,4.53
2018-04-18T00:10:35.977Z,4.20
2018-04-18T00:13:03.496Z,4.30
2018-04-18T00:15:31.108Z,4.73
2018-04-18T00:17:58.620Z,4.07
2018-04-18T00:20:26.153Z,4.63
2018-04-18T00:22:53.700Z,3.97
2018-04-18T00:25:21.242Z,4.80
2018-04-18T00:27:48.749Z,4.70
2018-04-18T00:30:16.396Z,4.53
2018-04-18T00:32:43.912Z,3.73
2018-04-18T00:35:12.226Z,3.77
2018-04-18T00:37:39.738Z,4.40
2018-04-18T00:40:08.070Z,4.50
2018-04-18T00:42:35.628Z,3.83
2018-04-18T00:45:03.160Z,4.80
2018-04-18T00:47:31.464Z,4.47
2018-04-18T00:49:59.029Z,4.40
2018-04-18T00:52:26.539Z,4.40
2018-04-18T00:54:55.575Z,4.07
2018-04-18T00:57:23.083Z,4.43
2018-04-18T00:59:50.631Z,4.43
2018-04-18T01:02:18.140Z,3.57
2018-04-18T01:04:46.512Z,4.40
2018-04-18T01:07:14.018Z,4.20
2018-04-18T01:09:41.532Z,4.10
2018-04-18T01:12:09.839Z,3.73
2018-04-18T01:14:37.356Z,4.57
2018-04-18T01:17:04.899Z,4.60
2018-04-18T01:19:32.407Z,4.87
2018-04-18T01:22:00.732Z,4.70
2018-04-18T01:24:28.244Z,4.90
2018-04-18T01:26:56.556Z,4.57
2018-04-18T01:29:24.069Z,4.70
2018-04-18T01:31:51.607Z,5.13
2018-04-18T01:34:19.124Z,5.03
2018-04-18T01:36:47.422Z,4.70
2018-04-18T01:39:14.996Z,5.70
2018-04-18T01:41:42.541Z,4.67
2018-04-18T01:44:10.061Z,3.70
2018-04-18T01:46:37.605Z,4.00
2018-04-18T01:49:17.125Z,4.03
2018-04-18T01:51:44.671Z,3.60
2018-04-18T01:54:12.253Z,3.50
2018-04-18T01:56:39.773Z,4.60
2018-04-18T01:59:08.077Z,4.70
2018-04-18T02:01:35.652Z,4.53
2018-04-18T02:04:03.190Z,4.27
2018-04-18T02:06:30.711Z,3.97
2018-04-18T02:08:58.251Z,3.80
2018-04-18T02:11:25.764Z,4.33
2018-04-18T02:13:54.102Z,5.50
2018-04-18T02:16:21.624Z,5.17
2018-04-18T02:18:49.160Z,4.63
2018-04-18T02:21:16.780Z,5.03
2018-04-18T02:23:44.313Z,5.13
2018-04-18T02:26:12.596Z,4.57
2018-04-18T02:28:40.125Z,3.93
2018-04-18T02:31:07.644Z,3.77
2018-04-18T02:33:35.188Z,4.80
2018-04-18T02:36:02.712Z,5.37
2018-04-18T02:38:30.332Z,5.10
2018-04-18T02:40:57.866Z,4.60
2018-04-18T02:43:26.148Z,5.27
2018-04-18T02:45:54.450Z,5.60
2018-04-18T02:48:21.967Z,6.50
2018-04-18T02:50:49.501Z,5.60
2018-04-18T02:53:17.020Z,5.50
2018-04-18T02:55:44.562Z,4.27
2018-04-18T02:58:12.851Z,4.40
2018-04-18T03:00:41.265Z,4.03
2018-04-18T03:03:08.781Z,4.23
2018-04-18T03:05:37.088Z,3.40
2018-04-18T03:08:04.609Z,3.60
2018-04-18T03:10:32.129Z,3.73
2018-04-18T03:12:59.688Z,3.80
2018-04-18T03:15:27.214Z,4.40
2018-04-18T03:17:55.511Z,4.10
2018-04-18T03:20:23.028Z,4.07
2018-04-18T03:22:50.652Z,4.80
2018-04-18T03:25:18.163Z,4.20
2018-04-18T03:27:45.695Z,4.90
2018-04-18T03:30:13.216Z,4.50
2018-04-18T03:32:40.757Z,3.50
2018-04-18T03:35:08.280Z,3.53
2018-04-18T03:37:35.921Z,3.73
2018-04-18T03:40:03.432Z,3.63
2018-04-18T03:42:30.956Z,4.33
2018-04-18T03:44:58.491Z,4.30
2018-04-18T03:47:26.050Z,4.10
2018-04-18T03:49:54.340Z,4.70
2018-04-18T03:52:21.852Z,4.83
2018-04-18T03:54:49.477Z,5.37
2018-04-18T03:57:16.997Z,5.00
2018-04-18T03:59:45.293Z,5.30
2018-04-18T04:02:12.804Z,5.67
2018-04-18T04:04:40.359Z,5.93
2018-04-18T04:07:07.896Z,5.00
2018-04-18T04:09:35.428Z,4.30
2018-04-18T04:12:03.704Z,3.87
2018-04-18T04:14:31.999Z,3.90
2018-04-18T04:17:11.404Z,3.67
2018-04-18T04:19:51.003Z,3.60
2018-04-18T04:22:30.495Z,4.10
2018-04-18T04:24:58.949Z,3.80
2018-04-18T04:27:26.455Z,4.60
2018-04-18T04:29:54.752Z,4.00
2018-04-18T04:32:22.261Z,4.10
2018-04-18T04:34:49.799Z,4.60
2018-04-18T04:37:17.312Z,4.17
2018-04-18T04:39:44.843Z,4.43
2018-04-18T04:42:12.376Z,5.83
2018-04-18T04:44:39.908Z,5.80
2018-04-18T04:47:08.188Z,5.20
2018-04-18T04:49:36.468Z,6.17
2018-04-18T04:52:04.768Z,6.10
2018-04-18T04:54:32.280Z,6.50
2018-04-18T04:56:59.813Z,6.60
2018-04-18T04:59:27.341Z,5.43
2018-04-18T05:01:54.876Z,6.67
2018-04-18T05:04:23.160Z,5.97
2018-04-18T05:06:51.456Z,5.60
2018-04-18T05:09:19.757Z,6.43
2018-04-18T05:11:47.293Z,6.07
2018-04-18T05:14:15.571Z,5.07
2018-04-18T05:16:43.872Z,6.53
2018-04-18T05:19:11.380Z,8.20
2018-04-18T05:21:40.422Z,8.37
2018-04-18T05:24:07.935Z,6.20
2018-04-18T05:26:36.977Z,6.90
2018-04-18T05:29:04.500Z,7.10
2018-04-18T05:31:32.115Z,7.60
2018-04-18T05:33:59.627Z,5.77
2018-04-18T05:36:27.151Z,5.63
2018-04-18T05:38:54.683Z,5.10
2018-04-18T05:41:22.955Z,5.60
2018-04-18T05:43:51.258Z,6.10
2018-04-18T05:46:18.777Z,7.30
2018-04-18T05:48:46.389Z,5.40
2018-04-18T05:51:13.899Z,6.00
2018-04-18T05:53:41.436Z,6.07
2018-04-18T05:56:08.972Z,5.87
2018-04-18T05:58:36.504Z,6.30
2018-04-18T06:01:04.784Z,7.10
2018-04-18T06:03:33.092Z,6.73
2018-04-18T06:06:00.648Z,6.53
2018-04-18T06:08:28.181Z,5.80
2018-04-18T06:10:56.463Z,5.80
2018-04-18T06:13:24.760Z,5.77
2018-04-18T06:15:52.332Z,7.27
2018-04-18T06:18:19.876Z,6.17
2018-04-18T06:20:47.456Z,5.87
2018-04-18T06:23:14.970Z,5.30
2018-04-18T06:25:42.508Z,5.17
2018-04-18T06:28:10.024Z,5.80
2018-04-18T06:30:37.555Z,6.30
2018-04-18T06:33:05.067Z,5.07
2018-04-18T06:35:32.601Z,5.10
2018-04-18T06:38:00.906Z,5.30
2018-04-18T06:40:28.449Z,6.60
2018-04-18T06:42:55.964Z,5.53
2018-04-18T06:45:23.503Z,5.93
2018-04-18T06:47:51.016Z,6.70
2018-04-18T06:50:19.316Z,5.63
2018-04-18T06:52:46.828Z,6.70
2018-04-18T06:55:14.451Z,6.40
2018-04-18T06:57:42.065Z,6.87
2018-04-18T07:00:09.567Z,6.23
2018-04-18T07:02:37.083Z,7.00
2018-04-18T07:05:04.619Z,7.40
2018-04-18T07:07:32.131Z,7.80
2018-04-18T07:10:00.418Z,7.57
2018-04-18T07:12:27.961Z,7.17
2018-04-18T07:14:56.276Z,8.30
2018-04-18T07:17:23.813Z,8.50
2018-04-18T07:19:52.127Z,10.40
2018-04-18T07:22:19.677Z,8.67
2018-04-18T07:24:47.244Z,8.37
2018-04-18T07:27:14.779Z,8.23
2018-04-18T07:29:43.065Z,10.70
2018-04-18T07:32:10.648Z,10.20
2018-04-18T07:34:38.166Z,9.17
2018-04-18T07:37:06.492Z,9.40
2018-04-18T07:39:34.032Z,8.57
2018-04-18T07:42:01.552Z,11.20
2018-04-18T07:44:29.100Z,10.00
2018-04-18T07:46:56.623Z,9.13
2018-04-18T07:49:24.187Z,9.30
2018-04-18T07:51:51.708Z,8.20
2018-04-18T07:54:19.241Z,9.30
2018-04-18T07:56:46.756Z,9.80
2018-04-18T07:59:14.295Z,8.60
2018-04-18T08:01:42.574Z,8.80
2018-04-18T08:04:10.881Z,8.73
2018-04-18T08:06:38.397Z,7.67
2018-04-18T08:09:05.944Z,9.43
2018-04-18T08:11:33.464Z,8.40
2018-04-18T08:14:01.038Z,8.00
2018-04-18T08:16:28.547Z,7.53
2018-04-18T08:18:56.066Z,7.20
2018-04-18T08:21:23.623Z,6.43
2018-04-18T08:23:51.135Z,7.17
2018-04-18T08:26:18.681Z,6.60
2018-04-18T08:28:46.197Z,6.70
2018-04-18T08:31:13.736Z,6.30
2018-04-18T08:33:42.016Z,6.50
2018-04-18T08:36:10.311Z,6.57
2018-04-18T08:38:37.823Z,7.30
2018-04-18T08:41:05.444Z,6.57
2018-04-18T08:43:32.961Z,7.00
2018-04-18T08:46:01.261Z,6.40
2018-04-18T08:48:29.540Z,6.10
2018-04-18T08:50:57.076Z,6.60
2018-04-18T08:53:24.589Z,6.00
2018-04-18T08:55:52.148Z,5.67
2018-04-18T08:58:19.679Z,5.77
2018-04-18T09:00:47.985Z,5.40
2018-04-18T09:03:15.552Z,5.90
2018-04-18T09:05:43.064Z,5.27
2018-04-18T09:08:10.596Z,5.80
2018-04-18T09:10:38.120Z,5.83
2018-04-18T09:13:05.653Z,5.53
2018-04-18T09:15:33.967Z,6.07
2018-04-18T09:18:01.487Z,5.40
2018-04-18T09:20:28.996Z,5.43
2018-04-18T09:22:56.529Z,5.20
2018-04-18T09:25:24.813Z,5.30
2018-04-18T09:27:53.113Z,4.77
2018-04-18T09:30:20.625Z,5.03
2018-04-18T09:32:48.136Z,5.43
2018-04-18T09:35:15.677Z,4.60
2018-04-18T09:37:43.193Z,5.13
2018-04-18T09:40:10.732Z,4.90
2018-04-18T09:42:38.258Z,4.97
2018-04-18T09:45:05.827Z,5.20
2018-04-18T09:47:34.095Z,3.73
2018-04-18T09:50:02.404Z,4.33
2018-04-18T09:52:29.924Z,4.43
2018-04-18T09:54:57.460Z,4.00
2018-04-18T09:57:24.980Z,4.93
2018-04-18T09:59:52.513Z,3.13
2018-04-18T10:02:26.627Z,3.90
2018-04-18T10:04:54.159Z,3.53
2018-04-18T10:07:21.691Z,3.67
2018-04-18T10:09:49.224Z,3.90
2018-04-18T10:12:17.503Z,2.87
2018-04-18T10:14:45.055Z,2.73
2018-04-18T10:17:13.336Z,3.20
2018-04-18T10:19:41.620Z,2.33
2018-04-18T10:22:09.919Z,3.33
2018-04-18T10:24:37.493Z,4.37
2018-04-18T10:27:05.029Z,3.33
2018-04-18T10:29:33.313Z,3.70
2018-04-18T10:32:00.856Z,2.70
2018-04-18T10:34:29.140Z,2.80
2018-04-18T10:36:57.441Z,2.77
2018-04-18T10:39:24.961Z,3.60
2018-04-18T10:41:52.500Z,3.57
2018-04-18T10:44:20.037Z,3.60
2018-04-18T10:46:47.570Z,2.40
2018-04-18T10:49:15.853Z,3.50
2018-04-18T10:51:43.386Z,3.60
2018-04-18T10:54:10.899Z,4.07
2018-04-18T10:56:38.437Z,2.97
2018-04-18T10:59:05.953Z,3.27
2018-04-18T11:01:33.504Z,2.97
2018-04-18T11:04:01.020Z,2.63
2018-04-18T11:06:29.299Z,2.90
2018-04-18T11:08:57.604Z,3.53
2018-04-18T11:11:25.120Z,2.80
2018-04-18T11:13:53.424Z,2.57
2018-04-18T11:16:20.944Z,3.10
2018-04-18T11:18:48.476Z,3.60
2018-04-18T11:21:15.989Z,2.57
2018-04-18T11:23:44.285Z,3.13
2018-04-18T11:26:11.805Z,3.00
2018-04-18T11:28:39.341Z,3.93
2018-04-18T11:31:06.892Z,3.00
2018-04-18T11:33:34.424Z,3.30
2018-04-18T11:36:02.707Z,2.70
2018-04-18T11:38:31.008Z,4.03
2018-04-18T11:40:58.572Z,3.70
2018-04-18T11:43:26.113Z,3.53
2018-04-18T11:45:53.620Z,3.03
2018-04-18T11:48:21.134Z,3.47
2018-04-18T11:50:48.664Z,2.93
2018-04-18T11:53:16.176Z,3.47
2018-04-18T11:55:43.713Z,2.70
2018-04-18T11:58:11.994Z,2.67
2018-04-18T12:00:40.289Z,2.50
2018-04-18T12:03:07.803Z,3.23
2018-04-18T12:05:35.417Z,3.03
2018-04-18T12:08:02.980Z,3.90
2018-04-18T12:10:30.516Z,2.90
2018-04-18T12:12:58.823Z,2.40
2018-04-18T12:15:26.359Z,2.40
2018-04-18T12:17:54.638Z,3.00
2018-04-18T12:20:22.945Z,2.67
2018-04-18T12:22:50.452Z,2.57
2018-04-18T12:25:18.060Z,3.07
2018-04-18T12:27:45.596Z,2.43
2018-04-18T12:30:13.879Z,2.40
2018-04-18T12:32:42.180Z,2.40
2018-04-18T12:35:09.742Z,2.23
2018-04-18T12:37:37.274Z,1.90
2018-04-18T12:40:05.560Z,2.70
2018-04-18T12:42:33.144Z,2.87
2018-04-18T12:45:00.656Z,2.37
2018-04-18T12:47:28.196Z,2.40
2018-04-18T12:49:55.725Z,3.07
2018-04-18T12:52:23.287Z,2.00
2018-04-18T12:54:50.805Z,2.70
2018-04-18T12:57:19.123Z,2.50
2018-04-18T12:59:46.633Z,2.50
2018-04-18T13:02:14.927Z,2.90
2018-04-18T13:04:43.229Z,2.40
2018-04-18T13:07:10.745Z,2.63
2018-04-18T13:09:38.275Z,2.50
2018-04-18T13:12:05.825Z,2.10
2018-04-18T13:14:33.364Z,2.70
2018-04-18T13:17:01.640Z,2.17
2018-04-18T13:19:29.945Z,2.63
2018-04-18T13:21:57.456Z,2.83
2018-04-18T13:24:24.984Z,2.20
2018-04-18T13:26:52.491Z,2.23
2018-04-18T13:29:20.787Z,2.30
2018-04-18T13:31:48.360Z,1.67
2018-04-18T13:34:15.919Z,1.90
2018-04-18T13:36:43.438Z,2.20
2018-04-18T13:39:11.715Z,2.30
2018-04-18T13:41:40.756Z,2.20
2018-04-18T13:44:09.221Z,2.67
2018-04-18T13:46:37.628Z,2.87
2018-04-18T13:49:05.140Z,2.00
2018-04-18T13:51:38.101Z,2.20
2018-04-18T13:54:05.611Z,1.90
2018-04-18T13:56:33.914Z,2.73
2018-04-18T13:59:01.427Z,2.60
2018-04-18T14:01:29.052Z,2.67
2018-04-18T14:03:56.563Z,2.63
2018-04-18T14:06:24.172Z,3.10
2018-04-18T14:08:51.735Z,2.87
2018-04-18T14:11:19.301Z,2.77
2018-04-18T14:13:46.860Z,2.67
2018-04-18T14:16:14.399Z,3.10
2018-04-18T14:18:41.921Z,2.40
2018-04-18T14:21:10.210Z,3.20
2018-04-18T14:23:37.820Z,2.30
2018-04-18T14:26:05.340Z,2.77
2018-04-18T14:28:32.880Z,2.70
2018-04-18T14:31:00.395Z,2.90
2018-04-18T14:33:27.929Z,2.37
2018-04-18T14:35:56.212Z,2.50
2018-04-18T14:38:24.513Z,2.07
2018-04-18T14:40:52.037Z,2.53
2018-04-18T14:43:20.327Z,2.70
2018-04-18T14:45:47.871Z,2.60
2018-04-18T14:48:15.387Z,2.10
2018-04-18T14:50:42.904Z,2.47
2018-04-18T14:53:10.504Z,2.57
2018-04-18T14:55:38.020Z,2.40
2018-04-18T14:58:06.356Z,2.83
2018-04-18T15:00:33.916Z,2.63
2018-04-18T15:03:01.423Z,2.77
2018-04-18T15:05:28.957Z,2.23
2018-04-18T15:07:56.472Z,1.70
2018-04-18T15:10:24.053Z,2.77
2018-04-18T15:12:51.563Z,2.60
2018-04-18T15:15:19.175Z,2.83
2018-04-18T15:17:46.692Z,2.70
2018-04-18T15:20:14.225Z,2.50
2018-04-18T15:22:41.760Z,2.97
2018-04-18T15:25:09.325Z,3.03
2018-04-18T15:27:36.842Z,2.80
2018-04-18T15:30:04.379Z,2.83
2018-04-18T15:32:31.893Z,2.00
2018-04-18T15:34:59.433Z,2.10
2018-04-18T15:37:27.719Z,2.27
2018-04-18T15:39:56.025Z,3.13
2018-04-18T15:42:23.532Z,3.10
2018-04-18T15:44:51.048Z,2.90
2018-04-18T15:47:18.583Z,2.67
2018-04-18T15:49:46.860Z,2.67
2018-04-18T15:52:15.160Z,2.50
2018-04-18T15:54:42.678Z,2.47
2018-04-18T15:57:10.212Z,2.90
2018-04-18T15:59:37.722Z,2.30
2018-04-18T16:02:06.028Z,2.23
2018-04-18T16:04:33.540Z,3.07
2018-04-18T16:07:01.156Z,2.40
2018-04-18T16:09:28.675Z,2.90
2018-04-18T16:11:56.986Z,3.47
2018-04-18T16:14:24.507Z,2.50
2018-04-18T16:16:52.040Z,2.60
2018-04-18T16:19:20.370Z,3.10
2018-04-18T16:21:47.960Z,3.00
2018-04-18T16:24:15.493Z,2.90
2018-04-18T16:26:43.075Z,3.10
2018-04-18T16:29:22.488Z,2.90
2018-04-18T16:31:50.792Z,2.63
2018-04-18T16:34:18.307Z,2.57
2018-04-18T16:36:45.819Z,2.47
2018-04-18T16:39:13.347Z,3.30
2018-04-18T16:41:41.637Z,3.37
2018-04-18T16:44:09.168Z,3.00
2018-04-18T16:46:36.680Z,3.30
2018-04-18T16:49:04.212Z,2.70
2018-04-18T16:51:31.724Z,3.20
2018-04-18T16:53:59.261Z,2.90
2018-04-18T16:56:26.783Z,2.50
2018-04-18T16:58:55.082Z,2.80
2018-04-18T17:01:22.597Z,3.47
2018-04-18T17:03:50.219Z,2.93
2018-04-18T17:06:17.741Z,3.17
2018-04-18T17:08:46.051Z,3.17
2018-04-18T17:11:13.569Z,2.77
2018-04-18T17:13:41.100Z,3.10
2018-04-18T17:16:08.617Z,3.20
2018-04-18T17:18:36.907Z,2.50
2018-04-18T17:21:04.428Z,3.30
2018-04-18T17:23:31.967Z,3.80
2018-04-18T17:25:59.476Z,3.00
2018-04-18T17:28:27.764Z,3.30
2018-04-18T17:30:55.348Z,3.00
2018-04-18T17:33:22.864Z,2.90
2018-04-18T17:35:51.164Z,2.73
2018-04-18T17:38:18.689Z,2.80
2018-04-18T17:40:46.227Z,2.67
2018-04-18T17:43:13.772Z,2.90
2018-04-18T17:45:41.331Z,2.67
2018-04-18T17:48:08.844Z,3.00
2018-04-18T17:50:36.376Z,2.70
2018-04-18T17:53:03.888Z,3.23
2018-04-18T17:55:32.189Z,3.60
2018-04-18T17:57:59.704Z,2.70
2018-04-18T18:00:27.236Z,3.43
2018-04-18T18:02:54.779Z,3.70
2018-04-18T18:05:22.318Z,2.90
2018-04-18T18:07:50.596Z,3.60
2018-04-18T18:10:18.892Z,3.33
2018-04-18T18:12:46.462Z,3.60
2018-04-18T18:15:14.028Z,3.20
2018-04-18T18:17:41.546Z,3.70
2018-04-18T18:20:09.847Z,3.60
2018-04-18T18:22:37.390Z,3.30
2018-04-18T18:25:05.664Z,3.47
2018-04-18T18:27:33.198Z,3.40
2018-04-18T18:30:00.718Z,3.73
2018-04-18T18:32:28.256Z,3.57
2018-04-18T18:34:56.531Z,3.90
2018-04-18T18:37:24.836Z,3.60
2018-04-18T18:39:52.406Z,4.00
2018-04-18T18:42:19.980Z,3.90
2018-04-18T18:44:47.492Z,3.27
2018-04-18T18:47:15.795Z,3.50
2018-04-18T18:49:44.107Z,3.47
2018-04-18T18:52:11.656Z,3.80
2018-04-18T18:54:39.173Z,3.40
2018-04-18T18:57:06.811Z,4.20
2018-04-18T18:59:34.324Z,3.70
2018-04-18T19:02:02.625Z,3.40
2018-04-18T19:04:30.139Z,3.80
2018-04-18T19:06:58.440Z,3.97
2018-04-18T19:09:26.721Z,4.10
2018-04-18T19:11:55.015Z,4.30
2018-04-18T19:14:22.528Z,3.70
2018-04-18T19:16:50.144Z,3.97
2018-04-18T19:19:17.659Z,4.40
2018-04-18T19:21:45.171Z,4.50
2018-04-18T19:24:12.702Z,4.70
2018-04-18T19:26:40.983Z,3.70
2018-04-18T19:29:09.284Z,4.20
2018-04-18T19:31:36.801Z,4.10
2018-04-18T19:34:04.331Z,4.17
2018-04-18T19:36:31.845Z,4.30
2018-04-18T19:39:00.152Z,4.03
2018-04-18T19:41:27.719Z,4.20
2018-04-18T19:43:55.229Z,4.83
2018-04-18T19:46:22.752Z,4.23
2018-04-18T19:48:50.285Z,3.93
2018-04-18T19:51:17.865Z,4.17
2018-04-18T19:53:45.426Z,3.83
2018-04-18T19:56:12.941Z,3.67
2018-04-18T19:58:40.473Z,4.10
2018-04-18T20:01:07.992Z,3.80
2018-04-18T20:03:35.500Z,3.90
2018-04-18T20:06:03.037Z,4.00
2018-04-18T20:08:30.552Z,4.33
2018-04-18T20:10:58.897Z,3.77
2018-04-18T20:13:26.433Z,4.40
2018-04-18T20:15:54.701Z,4.23
2018-04-18T20:18:22.280Z,4.23
2018-04-18T20:20:49.816Z,4.30
2018-04-18T20:23:18.097Z,4.40
2018-04-18T20:25:46.396Z,4.50
2018-04-18T20:28:13.970Z,4.40
2018-04-18T20:30:42.236Z,4.33
2018-04-18T20:33:09.804Z,4.50
2018-04-18T20:35:37.335Z,4.50
2018-04-18T20:38:05.616Z,4.50
2018-04-18T20:40:33.922Z,4.40
2018-04-18T20:43:01.476Z,4.30
2018-04-18T20:45:29.044Z,4.97
2018-04-18T20:47:56.559Z,4.63
2018-04-18T20:50:24.889Z,3.93
2018-04-18T20:52:52.450Z,4.40
2018-04-18T20:55:19.968Z,4.77
2018-04-18T20:57:48.264Z,5.00
2018-04-18T21:00:15.849Z,4.57
2018-04-18T21:02:43.404Z,4.63
2018-04-18T21:05:10.938Z,4.10
2018-04-18T21:07:39.243Z,4.10
2018-04-18T21:10:06.751Z,4.00
2018-04-18T21:12:34.293Z,4.93
2018-04-18T21:15:01.810Z,4.57
2018-04-18T21:17:29.339Z,4.20
2018-04-18T21:19:56.851Z,4.33
2018-04-18T21:22:24.380Z,4.33
2018-04-18T21:24:52.691Z,4.53
2018-04-18T21:27:20.257Z,4.40
2018-04-18T21:29:47.778Z,4.60
2018-04-18T21:32:16.081Z,5.20
2018-04-18T21:34:43.588Z,5.00
2018-04-18T21:37:11.127Z,5.20
2018-04-18T21:39:38.687Z,4.57
2018-04-18T21:42:06.201Z,3.80
2018-04-18T21:44:34.505Z,4.03
2018-04-18T21:47:02.015Z,4.00
2018-04-18T21:49:29.549Z,5.57
2018-04-18T21:51:57.060Z,4.97
2018-04-18T21:54:24.598Z,4.97
2018-04-18T21:56:52.111Z,5.30
2018-04-18T21:59:19.648Z,4.57
2018-04-18T22:01:47.165Z,4.47
2018-04-18T22:04:14.703Z,5.30
2018-04-18T22:06:42.226Z,4.30
2018-04-18T22:09:09.760Z,3.83
2018-04-18T22:11:37.281Z,4.97
2018-04-18T22:14:04.868Z,4.57
2018-04-18T22:16:32.388Z,5.40
2018-04-18T22:19:00.692Z,5.00
2018-04-18T22:21:28.211Z,5.50
2018-04-18T22:23:55.826Z,4.80
2018-04-18T22:26:23.386Z,4.73
2018-04-18T22:28:50.900Z,4.30
2018-04-18T22:31:18.431Z,4.77
2018-04-18T22:33:45.975Z,3.90
2018-04-18T22:36:13.512Z,4.50
2018-04-18T22:38:41.024Z,4.67
2018-04-18T22:41:08.553Z,4.70
2018-04-18T22:43:36.069Z,4.23
2018-04-18T22:46:03.603Z,5.20
2018-04-18T22:48:31.121Z,4.77
2018-04-18T22:50:58.704Z,4.33
2018-04-18T22:53:26.217Z,4.50
2018-04-18T22:55:53.748Z,3.90
2018-04-18T22:58:21.263Z,4.17
2018-04-18T23:00:49.556Z,5.10
2018-04-18T23:03:17.130Z,5.10
2018-04-18T23:05:44.677Z,5.63
2018-04-18T23:08:12.253Z,5.67
2018-04-18T23:10:39.772Z,5.37
2018-04-18T23:13:07.307Z,4.27
2018-04-18T23:15:34.840Z,4.43
2018-04-18T23:18:02.384Z,4.47
2018-04-18T23:20:29.907Z,4.50
2018-04-18T23:22:57.439Z,4.17
2018-04-18T23:25:24.952Z,5.10
2018-04-18T23:27:53.252Z,5.20
2018-04-18T23:30:20.823Z,4.33
2018-04-18T23:32:48.360Z,5.20
2018-04-18T23:35:16.642Z,5.70
2018-04-18T23:37:45.045Z,4.90
2018-04-18T23:40:12.556Z,4.80
2018-04-18T23:42:40.130Z,4.37
2018-04-18T23:45:07.636Z,4.10
2018-04-18T23:47:35.173Z,4.80
2018-04-18T23:50:03.448Z,3.97
2018-04-18T23:52:31.727Z,5.17
2018-04-18T23:55:00.031Z,4.40
2018-04-18T23:57:27.554Z,4.93
2018-04-18T23:59:55.083Z,6.27
